createdAt,value
2023-09-06T00:01:30.548Z,84.63927
2023-09-06T00:06:31.488Z,84.9611
2023-09-06T00:11:32.440Z,84.63927
2023-09-06T00:16:33.410Z,84.63927
2023-09-06T00:21:34.390Z,84.63927
2023-09-06T00:26:35.299Z,84.9611
2023-09-06T00:31:36.299Z,84.9611
2023-09-06T00:36:37.577Z,85.2844
2023-09-06T00:41:38.666Z,85.6092
2023-09-06T00:46:39.707Z,85.6092
2023-09-06T00:51:41.057Z,85.93548
2023-09-06T00:56:42.139Z,86.26328
2023-09-06T01:01:43.511Z,86.26328
2023-09-06T01:06:44.643Z,86.59259
2023-09-06T01:11:45.925Z,86.59259
2023-09-06T01:16:47.137Z,86.92343
2023-09-06T01:21:48.810Z,86.92343
2023-09-06T01:26:50.004Z,87.25581
2023-09-06T01:31:51.372Z,86.92343
2023-09-06T01:36:52.750Z,86.92343
2023-09-06T01:41:53.758Z,87.25581
2023-09-06T01:46:54.733Z,86.92343
2023-09-06T01:51:55.993Z,86.92343
2023-09-06T01:56:57.336Z,86.59259
2023-09-06T02:01:58.749Z,86.59259
2023-09-06T02:07:00.237Z,86.92343
2023-09-06T02:12:01.451Z,86.92343
2023-09-06T02:17:03.111Z,87.58974
2023-09-06T02:22:04.304Z,87.25581
2023-09-06T02:27:05.425Z,87.25581
2023-09-06T02:32:07.306Z,87.25581
2023-09-06T02:37:08.399Z,87.58974
2023-09-06T02:42:09.392Z,87.58974
2023-09-06T02:47:10.316Z,87.92523
2023-09-06T02:52:11.209Z,87.92523
2023-09-06T02:57:12.221Z,87.92523
2023-09-06T03:02:13.158Z,88.2623
2023-09-06T03:07:14.088Z,88.60094
2023-09-06T03:12:15.025Z,88.94118
2023-09-06T03:17:15.968Z,89.28302
2023-09-06T03:22:16.987Z,89.28302
2023-09-06T03:27:18.156Z,89.28302
2023-09-06T03:32:19.619Z,89.62648
2023-09-06T03:37:20.921Z,89.62648
2023-09-06T03:42:22.176Z,89.62648
2023-09-06T03:47:23.279Z,89.62648
2023-09-06T03:52:24.290Z,89.62648
2023-09-06T03:57:25.233Z,89.28302
2023-09-06T04:02:26.321Z,89.28302
2023-09-06T04:07:27.430Z,89.28302
2023-09-06T04:12:28.452Z,89.28302
2023-09-06T04:17:29.463Z,88.94118
2023-09-06T04:22:30.525Z,88.94118
2023-09-06T04:27:31.420Z,89.28302
2023-09-06T04:32:32.421Z,89.28302
2023-09-06T04:37:33.341Z,89.28302
2023-09-06T04:42:34.304Z,89.28302
2023-09-06T04:47:36.857Z,88.94118
2023-09-06T04:52:39.950Z,88.94118
2023-09-06T04:57:41.174Z,88.94118
2023-09-06T05:02:42.192Z,88.94118
2023-09-06T05:07:43.170Z,88.94118
2023-09-06T05:12:44.144Z,88.60094
2023-09-06T05:17:45.160Z,88.2623
2023-09-06T05:22:46.105Z,87.92523
2023-09-06T05:27:47.055Z,87.58974
2023-09-06T05:32:48.167Z,87.25581
2023-09-06T05:37:49.180Z,86.92343
2023-09-06T05:42:50.130Z,86.92343
2023-09-06T05:47:51.242Z,86.59259
2023-09-06T05:52:52.243Z,86.59259
2023-09-06T05:57:53.232Z,85.93548
2023-09-06T06:02:54.460Z,85.93548
2023-09-06T06:07:55.408Z,85.6092
2023-09-06T06:12:56.377Z,84.9611
2023-09-06T06:17:57.277Z,84.9611
2023-09-06T06:22:58.250Z,84.63927
2023-09-06T06:27:59.344Z,84.0
2023-09-06T06:33:00.393Z,83.36652
2023-09-06T06:38:01.404Z,83.36652
2023-09-06T06:43:02.359Z,83.05192
2023-09-06T06:48:03.280Z,82.73874
2023-09-06T06:53:04.309Z,82.42697
2023-09-06T06:58:06.269Z,82.42697
2023-09-06T07:03:07.362Z,82.11659
2023-09-06T07:08:08.437Z,80.88889
2023-09-06T07:13:09.370Z,80.58537
2023-09-06T07:18:10.392Z,80.88889
2023-09-06T07:23:11.418Z,80.88889
2023-09-06T07:28:12.339Z,79.68282
2023-09-06T07:33:13.348Z,79.38462
2023-09-06T07:38:14.380Z,79.38462
2023-09-06T07:43:15.462Z,79.98234
2023-09-06T07:48:16.496Z,79.38462
2023-09-06T07:53:17.627Z,79.08772
2023-09-06T07:58:18.842Z,77.62256
2023-09-06T08:03:20.126Z,77.62256
2023-09-06T08:08:21.354Z,77.04536
2023-09-06T08:13:22.576Z,78.20479
2023-09-06T08:18:23.878Z,77.62256
2023-09-06T08:23:24.918Z,76.18884
2023-09-06T08:28:25.907Z,76.18884
2023-09-06T08:33:26.899Z,75.06383
2023-09-06T08:38:27.873Z,76.18884
2023-09-06T08:43:28.808Z,76.18884
2023-09-06T08:48:30.165Z,76.47312
2023-09-06T08:53:31.771Z,76.47312
2023-09-06T08:58:32.848Z,73.95781
2023-09-06T09:03:34.274Z,73.95781
2023-09-06T09:08:35.644Z,73.14046
2023-09-06T09:13:36.640Z,73.14046
2023-09-06T09:18:37.669Z,73.41176
2023-09-06T09:23:38.778Z,72.60125
2023-09-06T09:28:39.713Z,72.33333
2023-09-06T09:33:40.878Z,71.80083
2023-09-06T09:38:41.901Z,72.06653
2023-09-06T09:43:42.847Z,71.80083
2023-09-06T09:48:43.822Z,69.20325
2023-09-06T09:53:44.874Z,68.44444
2023-09-06T09:58:45.847Z,68.44444
2023-09-06T10:03:46.865Z,70.48871
2023-09-06T10:08:47.874Z,73.95781
2023-09-06T10:13:48.805Z,74.23256
2023-09-06T10:18:49.858Z,74.78556
2023-09-06T10:23:50.965Z,71.80083
2023-09-06T10:28:51.928Z,71.53623
2023-09-06T10:33:52.864Z,69.97137
2023-09-06T10:38:54.128Z,69.71429
2023-09-06T10:43:55.240Z,69.45825
2023-09-06T10:48:56.353Z,70.74897
2023-09-06T10:53:57.462Z,70.22951
2023-09-06T10:58:58.489Z,69.20325
2023-09-06T11:03:59.596Z,68.94929
2023-09-06T11:09:00.572Z,67.69478
2023-09-06T11:14:01.788Z,68.69636
2023-09-06T11:19:02.852Z,68.44444
2023-09-06T11:24:03.880Z,67.94366
2023-09-06T11:29:05.015Z,67.44689
2023-09-06T11:34:06.260Z,67.94366
2023-09-06T11:39:07.500Z,67.44689
2023-09-06T11:44:08.459Z,68.44444
2023-09-06T11:49:09.424Z,68.69636
2023-09-06T11:54:10.349Z,68.19355
2023-09-06T11:59:11.333Z,68.44444
2023-09-06T12:04:12.390Z,67.44689
2023-09-06T12:09:13.533Z,66.70916
2023-09-06T12:14:14.772Z,65.25984
2023-09-06T12:19:15.686Z,65.73913
2023-09-06T12:24:16.650Z,64.78431
2023-09-06T12:29:17.676Z,65.49901
2023-09-06T12:34:18.703Z,64.3125
2023-09-06T12:39:20.058Z,64.3125
2023-09-06T12:44:21.328Z,63.37984
2023-09-06T12:49:22.541Z,63.37984
2023-09-06T12:54:23.772Z,60.66667
2023-09-06T12:59:24.719Z,60.44612
2023-09-06T13:04:25.971Z,59.14019
2023-09-06T13:09:27.122Z,57.65314
2023-09-06T13:14:28.080Z,57.65314
2023-09-06T13:19:29.064Z,58.71136
2023-09-06T13:24:30.018Z,57.65314
2023-09-06T13:29:30.929Z,57.65314
2023-09-06T13:34:31.956Z,59.14019
2023-09-06T13:39:32.923Z,59.35581
2023-09-06T13:44:33.861Z,58.49814
2023-09-06T13:49:34.828Z,58.07407
2023-09-06T13:54:35.817Z,58.92537
2023-09-06T13:59:36.765Z,60.00753
2023-09-06T14:04:37.850Z,59.78947
2023-09-06T14:09:38.928Z,59.35581
2023-09-06T14:14:39.849Z,58.28571
2023-09-06T14:19:40.804Z,60.00753
2023-09-06T14:24:41.739Z,59.35581
2023-09-06T14:29:42.663Z,59.57223
2023-09-06T14:34:43.777Z,61.78203
2023-09-06T14:39:44.835Z,61.55725
2023-09-06T14:44:45.891Z,61.33333
2023-09-06T14:49:46.830Z,60.66667
2023-09-06T14:54:47.844Z,61.78203
2023-09-06T14:59:48.962Z,63.37984
2023-09-06T15:04:49.976Z,62.91892
2023-09-06T15:09:50.989Z,62.46154
2023-09-06T15:14:52.133Z,63.14894
2023-09-06T15:19:53.122Z,62.23417
2023-09-06T15:24:54.050Z,62.46154
2023-09-06T15:29:54.963Z,63.61165
2023-09-06T15:34:55.907Z,64.07797
2023-09-06T15:39:56.883Z,64.54795
2023-09-06T15:44:57.920Z,63.84436
2023-09-06T15:49:58.869Z,64.78431
2023-09-06T15:54:59.888Z,65.25984
2023-09-06T16:00:09.385Z,65.49901
2023-09-06T16:05:17.467Z,65.49901
2023-09-06T16:10:18.401Z,65.9802
2023-09-06T16:15:19.642Z,66.70916
2023-09-06T16:20:20.849Z,67.44689
2023-09-06T16:25:22.082Z,67.2
2023-09-06T16:30:23.425Z,68.94929
2023-09-06T16:35:24.865Z,69.20325
2023-09-06T16:40:25.858Z,69.20325
2023-09-06T16:45:26.778Z,69.45825
2023-09-06T16:50:27.704Z,69.71429
2023-09-06T16:55:28.729Z,70.48871
2023-09-06T17:00:29.741Z,70.48871
2023-09-06T17:05:30.746Z,71.01031
2023-09-06T17:10:31.724Z,71.27273
2023-09-06T17:15:32.737Z,71.53623
2023-09-06T17:20:33.756Z,71.53623
2023-09-06T17:25:34.767Z,72.33333
2023-09-06T17:30:35.742Z,72.33333
2023-09-06T17:35:36.668Z,72.33333
2023-09-06T17:40:37.741Z,72.60125
2023-09-06T17:45:38.869Z,73.14046
2023-09-06T17:50:39.964Z,73.68421
2023-09-06T17:55:40.894Z,73.95781
2023-09-06T18:00:41.860Z,74.23256
2023-09-06T18:05:43.353Z,74.78556
2023-09-06T18:10:44.594Z,75.34328
2023-09-06T18:15:45.588Z,75.34328
2023-09-06T18:20:46.526Z,75.62393
2023-09-06T18:25:47.550Z,76.18884
2023-09-06T18:30:48.519Z,76.18884
2023-09-06T18:35:49.521Z,76.75862
2023-09-06T18:40:50.470Z,77.04536
2023-09-06T18:45:51.755Z,77.04536
2023-09-06T18:50:52.748Z,77.04536
2023-09-06T18:55:53.801Z,77.33333
2023-09-06T19:00:54.752Z,77.33333
2023-09-06T19:05:55.753Z,77.62256
2023-09-06T19:10:56.764Z,77.62256
2023-09-06T19:15:57.727Z,77.91304
2023-09-06T19:20:58.733Z,78.20479
2023-09-06T19:25:59.659Z,78.20479
2023-09-06T19:31:00.673Z,78.49782
2023-09-06T19:36:01.723Z,78.79212
2023-09-06T19:41:02.674Z,78.79212
2023-09-06T19:46:03.626Z,78.79212
2023-09-06T19:51:04.573Z,78.79212
2023-09-06T19:56:05.484Z,78.79212
2023-09-06T20:01:06.464Z,79.08772
2023-09-06T20:06:07.523Z,79.38462
2023-09-06T20:11:08.487Z,79.68282
2023-09-06T20:16:09.431Z,79.68282
2023-09-06T20:21:10.401Z,79.68282
2023-09-06T20:26:11.344Z,79.68282
2023-09-06T20:31:12.292Z,79.68282
2023-09-06T20:36:13.277Z,79.98234
2023-09-06T20:41:14.194Z,79.98234
2023-09-06T20:46:15.251Z,80.28319
2023-09-06T20:51:16.307Z,80.28319
2023-09-06T20:56:17.328Z,80.28319
2023-09-06T21:01:18.305Z,80.28319
2023-09-06T21:06:19.481Z,80.58537
2023-09-06T21:11:20.794Z,80.58537
2023-09-06T21:16:22.066Z,80.58537
2023-09-06T21:21:23.312Z,80.88889
2023-09-06T21:26:24.598Z,80.88889
2023-09-06T21:31:25.633Z,81.19376
2023-09-06T21:36:26.746Z,81.19376
2023-09-06T21:41:27.677Z,81.5
2023-09-06T21:46:28.613Z,81.80761
2023-09-06T21:51:29.547Z,81.80761
2023-09-06T21:56:30.518Z,82.11659
2023-09-06T22:01:31.549Z,82.11659
2023-09-06T22:06:32.584Z,82.11659
2023-09-06T22:11:33.507Z,82.11659
2023-09-06T22:16:34.490Z,82.11659
2023-09-06T22:21:35.502Z,82.11659
2023-09-06T22:26:36.424Z,82.42697
2023-09-06T22:31:37.430Z,82.42697
2023-09-06T22:36:38.486Z,82.73874
2023-09-06T22:41:39.407Z,82.73874
2023-09-06T22:46:40.437Z,82.73874
2023-09-06T22:51:41.558Z,82.73874
2023-09-06T22:56:42.491Z,82.73874
2023-09-06T23:01:43.515Z,82.73874
2023-09-06T23:06:44.505Z,82.73874
2023-09-06T23:11:45.419Z,82.73874
2023-09-06T23:16:46.628Z,82.73874
2023-09-06T23:21:47.620Z,82.73874
2023-09-06T23:26:48.558Z,83.05192
2023-09-06T23:31:49.597Z,83.05192
2023-09-06T23:36:50.748Z,83.36652
2023-09-06T23:41:51.678Z,83.36652
2023-09-06T23:46:52.714Z,83.36652
2023-09-06T23:51:53.785Z,83.36652
2023-09-06T23:56:54.736Z,83.36652
